createdAt,value
2022-12-08T00:01:31.069Z,101255.13
2022-12-08T00:04:02.670Z,101291.59
2022-12-08T00:06:53.204Z,101288.44
2022-12-08T00:09:26.050Z,101244.91
2022-12-08T00:11:57.705Z,101284.97
2022-12-08T00:14:27.939Z,101282.75
2022-12-08T00:16:55.696Z,101257.63
2022-12-08T00:19:24.221Z,101280.63
2022-12-08T00:21:51.983Z,101192.03
2022-12-08T00:24:19.739Z,101225.50
2022-12-08T00:26:47.975Z,101277.09
2022-12-08T00:29:17.563Z,101276.84
2022-12-08T00:31:45.185Z,101274.28
2022-12-08T00:34:14.214Z,101262.25
2022-12-08T00:36:42.252Z,101192.56
2022-12-08T00:39:10.838Z,101284.75
2022-12-08T00:41:56.564Z,101288.25
2022-12-08T00:44:24.092Z,101265.25
2022-12-08T00:46:51.641Z,101291.84
2022-12-08T00:49:19.698Z,101281.66
2022-12-08T00:51:47.215Z,101282.47
2022-12-08T00:54:15.039Z,101199.66
2022-12-08T00:56:42.410Z,101266.59
2022-12-08T00:59:10.558Z,101270.03
2022-12-08T01:01:38.193Z,101274.81
2022-12-08T01:04:13.563Z,101277.56
2022-12-08T01:06:41.128Z,101230.00
2022-12-08T01:09:09.094Z,101276.50
2022-12-08T01:11:37.062Z,101258.66
2022-12-08T01:14:04.721Z,101206.50
2022-12-08T01:16:35.655Z,101279.56
2022-12-08T01:19:03.634Z,101272.75
2022-12-08T01:21:31.076Z,101277.16
2022-12-08T01:24:00.393Z,101265.84
2022-12-08T01:26:28.040Z,101264.19
2022-12-08T01:28:55.909Z,101268.16
2022-12-08T01:31:23.507Z,101188.22
2022-12-08T01:33:51.182Z,101252.66
2022-12-08T01:36:26.179Z,101266.00
2022-12-08T01:38:54.264Z,101135.44
2022-12-08T01:41:23.949Z,101273.06
2022-12-08T01:44:24.402Z,101269.44
2022-12-08T01:46:53.876Z,101271.19
2022-12-08T01:49:32.400Z,101275.91
2022-12-08T01:52:04.308Z,101265.28
2022-12-08T01:54:44.445Z,101272.53
2022-12-08T01:57:17.801Z,101243.38
2022-12-08T01:59:47.152Z,101274.50
2022-12-08T02:02:14.619Z,101267.56
2022-12-08T02:04:42.170Z,101271.31
2022-12-08T02:07:12.285Z,101265.19
2022-12-08T02:09:40.871Z,101224.72
2022-12-08T02:12:10.432Z,101261.44
2022-12-08T02:14:37.904Z,101239.13
2022-12-08T02:17:45.634Z,101254.53
2022-12-08T02:20:19.077Z,101259.41
2022-12-08T02:22:49.399Z,101261.88
2022-12-08T02:25:45.674Z,101261.22
2022-12-08T02:28:38.726Z,101159.91
2022-12-08T02:31:17.979Z,101207.75
2022-12-08T02:34:09.910Z,101267.31
2022-12-08T02:36:59.955Z,101243.06
2022-12-08T02:40:05.600Z,101263.34
2022-12-08T02:42:52.847Z,101261.09
2022-12-08T02:45:26.112Z,101259.91
2022-12-08T02:47:54.500Z,101254.88
2022-12-08T02:50:21.939Z,101257.97
2022-12-08T02:52:49.637Z,101231.72
2022-12-08T02:55:25.296Z,101244.72
2022-12-08T02:58:35.626Z,101265.25
2022-12-08T03:01:26.080Z,101270.00
2022-12-08T03:04:11.585Z,101262.09
2022-12-08T03:07:04.272Z,101251.47
2022-12-08T03:09:50.022Z,101264.38
2022-12-08T03:12:25.605Z,101261.50
2022-12-08T03:15:00.301Z,101194.56
2022-12-08T03:17:31.267Z,101220.63
2022-12-08T03:20:04.573Z,101210.56
2022-12-08T03:22:33.626Z,101245.66
2022-12-08T03:25:01.726Z,101230.09
2022-12-08T03:27:31.465Z,101201.81
2022-12-08T03:30:00.720Z,101233.47
2022-12-08T03:32:34.976Z,101258.66
2022-12-08T03:35:07.705Z,101258.31
2022-12-08T03:37:40.179Z,101252.56
2022-12-08T03:40:10.023Z,101254.13
2022-12-08T03:42:37.452Z,101251.66
2022-12-08T03:45:05.714Z,101250.81
2022-12-08T03:47:33.104Z,101255.03
2022-12-08T03:50:00.345Z,101263.88
2022-12-08T03:52:27.787Z,101251.31
2022-12-08T03:54:55.343Z,101257.69
2022-12-08T03:57:22.762Z,101266.81
2022-12-08T03:59:50.079Z,101241.00
2022-12-08T04:02:17.466Z,101261.91
2022-12-08T04:04:44.861Z,101281.81
2022-12-08T04:07:12.310Z,101272.53
2022-12-08T04:09:41.833Z,101280.16
2022-12-08T04:12:09.630Z,101264.50
2022-12-08T04:14:37.243Z,101262.47
2022-12-08T04:17:04.700Z,101205.97
2022-12-08T04:19:32.003Z,101264.75
2022-12-08T04:21:59.317Z,101276.88
2022-12-08T04:24:26.756Z,101240.19
2022-12-08T04:26:54.024Z,101274.41
2022-12-08T04:29:21.567Z,101276.38
2022-12-08T04:31:48.969Z,101271.94
2022-12-08T04:34:16.438Z,101220.28
2022-12-08T04:36:43.737Z,101112.19
2022-12-08T04:39:11.299Z,101256.19
2022-12-08T04:41:38.751Z,101260.50
2022-12-08T04:44:06.132Z,101258.22
2022-12-08T04:46:33.438Z,101278.41
2022-12-08T04:49:00.833Z,101258.03
2022-12-08T04:51:28.279Z,101247.25
2022-12-08T04:53:55.660Z,101252.38
2022-12-08T04:56:23.033Z,101273.09
2022-12-08T04:58:50.447Z,101264.41
2022-12-08T05:01:18.023Z,101242.81
2022-12-08T05:03:45.354Z,101287.75
2022-12-08T05:06:14.202Z,101285.34
2022-12-08T05:08:42.930Z,101245.47
2022-12-08T05:11:11.770Z,101265.09
2022-12-08T05:13:39.101Z,101255.91
2022-12-08T05:16:11.982Z,101275.44
2022-12-08T05:18:40.569Z,101236.38
2022-12-08T05:21:09.020Z,101287.59
2022-12-08T05:23:36.671Z,101249.88
2022-12-08T05:26:04.339Z,101268.03
2022-12-08T05:28:41.331Z,101299.16
2022-12-08T05:31:10.220Z,101281.25
2022-12-08T05:33:37.795Z,101288.34
2022-12-08T05:36:05.419Z,101298.41
2022-12-08T05:38:32.919Z,101294.72
2022-12-08T05:41:00.439Z,101304.97
2022-12-08T05:43:28.115Z,101258.34
2022-12-08T05:45:55.651Z,101306.19
2022-12-08T05:48:25.984Z,101259.59
2022-12-08T05:50:54.293Z,101278.50
2022-12-08T05:53:21.712Z,101303.59
2022-12-08T05:55:49.503Z,101260.91
2022-12-08T05:58:19.742Z,101276.38
2022-12-08T06:00:48.911Z,101295.88
2022-12-08T06:03:18.923Z,101263.59
2022-12-08T06:05:47.936Z,101225.47
2022-12-08T06:08:15.569Z,101326.56
2022-12-08T06:10:44.948Z,101313.06
2022-12-08T06:13:12.739Z,101322.41
2022-12-08T06:15:40.962Z,101297.34
2022-12-08T06:18:08.399Z,101308.31
2022-12-08T06:20:35.819Z,101306.66
2022-12-08T06:23:03.688Z,101318.50
2022-12-08T06:25:31.169Z,101332.97
2022-12-08T06:27:58.497Z,101311.25
2022-12-08T06:30:26.271Z,101291.34
2022-12-08T06:32:53.511Z,101338.09
2022-12-08T06:35:20.600Z,101320.19
2022-12-08T06:37:47.674Z,101347.31
2022-12-08T06:40:14.894Z,101350.56
2022-12-08T06:42:44.484Z,101362.75
2022-12-08T06:45:14.007Z,101359.50
2022-12-08T06:47:41.652Z,101226.53
2022-12-08T06:50:10.652Z,101357.53
2022-12-08T06:52:47.252Z,101333.97
2022-12-08T06:55:50.677Z,101322.91
2022-12-08T06:58:07.999Z,101359.50
2022-12-08T07:00:35.300Z,101313.47
2022-12-08T07:03:02.625Z,101336.50
2022-12-08T07:05:29.857Z,101343.13
2022-12-08T07:07:57.120Z,101352.84
2022-12-08T07:10:24.641Z,101354.47
2022-12-08T07:12:52.098Z,101350.19
2022-12-08T07:15:21.248Z,101369.06
2022-12-08T07:17:49.233Z,101360.81
2022-12-08T07:20:16.592Z,101351.38
2022-12-08T07:22:54.159Z,101346.47
2022-12-08T07:25:21.496Z,101357.88
2022-12-08T07:27:51.380Z,101355.25
2022-12-08T07:30:20.262Z,101339.97
2022-12-08T07:32:47.662Z,101360.41
2022-12-08T07:35:14.878Z,101366.31
2022-12-08T07:37:42.118Z,101357.91
2022-12-08T07:40:10.163Z,101359.88
2022-12-08T07:42:37.557Z,101365.97
2022-12-08T07:45:05.122Z,101302.97
2022-12-08T07:47:32.221Z,101362.00
2022-12-08T07:49:59.407Z,101342.00
2022-12-08T07:52:26.577Z,101365.44
2022-12-08T07:54:53.610Z,101365.81
2022-12-08T07:57:20.761Z,101365.81
2022-12-08T07:59:47.930Z,101252.31
2022-12-08T08:02:25.345Z,101367.38
2022-12-08T08:04:54.456Z,101356.25
2022-12-08T08:07:22.223Z,101236.97
2022-12-08T08:09:49.351Z,101332.53
2022-12-08T08:12:32.793Z,101348.97
2022-12-08T08:15:01.135Z,101369.94
2022-12-08T08:17:29.429Z,101363.66
2022-12-08T08:19:57.043Z,101392.50
2022-12-08T08:22:25.731Z,101379.25
2022-12-08T08:24:53.757Z,101353.41
2022-12-08T08:27:21.314Z,101381.00
2022-12-08T08:29:48.535Z,101379.59
2022-12-08T08:32:15.740Z,101385.34
2022-12-08T08:34:43.123Z,101378.00
2022-12-08T08:37:10.378Z,101342.00
2022-12-08T08:39:37.588Z,101363.22
2022-12-08T08:42:05.025Z,101342.53
2022-12-08T08:44:32.302Z,101313.16
2022-12-08T08:46:59.426Z,101354.94
2022-12-08T08:49:26.825Z,101351.91
2022-12-08T08:51:54.016Z,101346.34
2022-12-08T08:54:21.277Z,101338.19
2022-12-08T08:56:48.563Z,101345.72
2022-12-08T08:59:15.685Z,101343.75
2022-12-08T09:01:43.034Z,101300.88
2022-12-08T09:04:11.102Z,101361.38
2022-12-08T09:06:38.434Z,101355.34
2022-12-08T09:09:05.954Z,101356.84
2022-12-08T09:11:33.408Z,101310.06
2022-12-08T09:14:00.543Z,101336.31
2022-12-08T09:16:31.034Z,101344.19
2022-12-08T09:19:01.520Z,101335.34
2022-12-08T09:21:30.702Z,101319.78
2022-12-08T09:23:59.286Z,101338.34
2022-12-08T09:26:28.189Z,101340.66
2022-12-08T09:28:57.220Z,101329.34
2022-12-08T09:31:25.251Z,101288.66
2022-12-08T09:33:52.726Z,101316.75
2022-12-08T09:36:20.712Z,101306.34
2022-12-08T09:38:50.152Z,101334.97
2022-12-08T09:41:24.567Z,101332.03
2022-12-08T09:44:29.475Z,101325.97
2022-12-08T09:46:59.124Z,101314.81
2022-12-08T09:49:38.591Z,101322.56
2022-12-08T09:52:12.745Z,101307.34
2022-12-08T09:54:40.326Z,101282.94
2022-12-08T09:57:15.069Z,101250.22
2022-12-08T09:59:48.579Z,101314.72
2022-12-08T10:02:28.485Z,101293.16
2022-12-08T10:04:57.202Z,101299.63
2022-12-08T10:07:58.801Z,101291.75
2022-12-08T10:10:47.028Z,101296.63
2022-12-08T10:13:26.415Z,101294.84
2022-12-08T10:15:53.608Z,101287.59
2022-12-08T10:18:27.704Z,101286.09
2022-12-08T10:21:00.414Z,101284.50
2022-12-08T10:23:27.509Z,101299.03
2022-12-08T10:26:07.960Z,101302.91
2022-12-08T10:28:41.388Z,101243.25
2022-12-08T10:31:25.707Z,101220.88
2022-12-08T10:34:24.398Z,101278.94
2022-12-08T10:36:59.171Z,101271.22
2022-12-08T10:39:39.693Z,101271.34
2022-12-08T10:42:15.878Z,101272.03
2022-12-08T10:45:01.004Z,101279.53
2022-12-08T10:47:29.470Z,101261.06
2022-12-08T10:50:15.595Z,101277.75
2022-12-08T10:52:42.836Z,101153.81
2022-12-08T10:55:21.056Z,101252.31
2022-12-08T10:57:51.474Z,101257.06
2022-12-08T11:00:27.475Z,101271.88
2022-12-08T11:03:05.367Z,101216.38
2022-12-08T11:05:37.331Z,101208.97
2022-12-08T11:08:06.137Z,101279.91
2022-12-08T11:10:46.451Z,101235.66
2022-12-08T11:13:21.481Z,101266.19
2022-12-08T11:15:49.951Z,101233.59
2022-12-08T11:18:28.235Z,101262.22
2022-12-08T11:21:07.761Z,101244.41
2022-12-08T11:23:36.828Z,101206.50
2022-12-08T11:26:24.567Z,101212.59
2022-12-08T11:28:52.350Z,101198.75
2022-12-08T11:31:43.688Z,101228.25
2022-12-08T11:34:36.551Z,101267.75
2022-12-08T11:37:17.719Z,101233.81
2022-12-08T11:39:49.580Z,101252.31
2022-12-08T11:42:20.627Z,101265.72
2022-12-08T11:44:57.568Z,101260.75
2022-12-08T11:47:25.036Z,101258.25
2022-12-08T11:50:02.377Z,101245.22
2022-12-08T11:52:45.962Z,101245.78
2022-12-08T11:56:04.465Z,101242.84
2022-12-08T11:59:29.069Z,101225.16
2022-12-08T12:01:58.342Z,101227.09
2022-12-08T12:04:38.075Z,101217.09
2022-12-08T12:07:21.677Z,101217.69
2022-12-08T12:10:23.687Z,101223.34
2022-12-08T12:13:06.267Z,101215.31
2022-12-08T12:16:29.089Z,101218.69
2022-12-08T12:19:02.741Z,101215.63
2022-12-08T12:21:34.866Z,101140.72
2022-12-08T12:24:19.676Z,101209.75
2022-12-08T12:27:16.414Z,101216.19
2022-12-08T12:29:55.692Z,101164.88
2022-12-08T12:32:24.762Z,101182.06
2022-12-08T12:35:02.642Z,101200.16
2022-12-08T12:37:40.009Z,101197.66
2022-12-08T12:40:20.763Z,101194.34
2022-12-08T12:43:09.844Z,101187.00
2022-12-08T12:45:43.584Z,101162.63
2022-12-08T12:48:22.676Z,101190.41
2022-12-08T12:50:51.987Z,101196.81
2022-12-08T12:53:19.122Z,101193.22
2022-12-08T12:55:46.324Z,101199.56
2022-12-08T12:58:28.910Z,101204.91
2022-12-08T13:01:14.261Z,101196.50
2022-12-08T13:03:50.042Z,101189.25
2022-12-08T13:06:35.148Z,101184.38
2022-12-08T13:09:21.517Z,101112.19
2022-12-08T13:11:58.644Z,101179.72
2022-12-08T13:14:38.099Z,101106.88
2022-12-08T13:17:11.706Z,101162.47
2022-12-08T13:19:40.882Z,101145.78
2022-12-08T13:22:45.810Z,101118.94
2022-12-08T13:25:45.775Z,101184.38
2022-12-08T13:28:15.905Z,101179.50
2022-12-08T13:30:44.846Z,101190.84
2022-12-08T13:33:19.182Z,101189.69
2022-12-08T13:35:53.675Z,101197.31
2022-12-08T13:38:25.483Z,101185.84
2022-12-08T13:40:55.893Z,101212.72
2022-12-08T13:44:24.810Z,101186.66
2022-12-08T13:47:31.660Z,101180.38
2022-12-08T13:58:28.520Z,101162.59
2022-12-08T14:01:08.738Z,101152.19
2022-12-08T14:06:49.539Z,101184.50
2022-12-08T14:09:23.368Z,101131.06
2022-12-08T14:11:52.788Z,101117.44
2022-12-08T14:14:46.277Z,101168.84
2022-12-08T14:17:15.507Z,101169.41
2022-12-08T14:19:45.027Z,101143.75
2022-12-08T14:22:15.514Z,101179.50
2022-12-08T14:24:48.286Z,101174.97
2022-12-08T14:27:20.919Z,101149.13
2022-12-08T14:29:52.723Z,101156.03
2022-12-08T14:32:30.359Z,101114.25
2022-12-08T14:35:20.819Z,101180.03
2022-12-08T14:38:16.477Z,101185.72
2022-12-08T14:40:53.212Z,101183.13
2022-12-08T14:43:27.332Z,101184.69
2022-12-08T14:46:01.493Z,101173.69
2022-12-08T14:48:34.098Z,101172.78
2022-12-08T14:51:09.415Z,101193.28
2022-12-08T14:53:43.485Z,101123.94
2022-12-08T14:56:24.799Z,101198.06
2022-12-08T14:59:21.204Z,101196.13
2022-12-08T15:01:51.600Z,101202.47
2022-12-08T15:04:24.796Z,101161.06
2022-12-08T15:06:54.442Z,101198.97
2022-12-08T15:09:50.099Z,101199.66
2022-12-08T15:12:27.041Z,101206.59
2022-12-08T15:15:01.727Z,101214.72
2022-12-08T15:17:40.847Z,101218.78
2022-12-08T15:20:31.686Z,101214.50
2022-12-08T15:23:02.433Z,101230.28
2022-12-08T15:25:29.793Z,101221.78
2022-12-08T15:27:58.189Z,101189.78
2022-12-08T15:30:26.686Z,101169.81
2022-12-08T15:32:56.254Z,101211.13
2022-12-08T15:35:23.732Z,101172.78
2022-12-08T15:37:51.031Z,101195.25
2022-12-08T15:40:22.967Z,101168.78
2022-12-08T15:42:50.284Z,101176.38
2022-12-08T15:45:18.155Z,101205.63
2022-12-08T15:47:46.141Z,101210.06
2022-12-08T15:50:18.589Z,101193.38
2022-12-08T15:52:45.896Z,101153.09
2022-12-08T15:55:19.031Z,101186.47
2022-12-08T16:00:54.140Z,101198.22
2022-12-08T16:04:09.416Z,101200.63
2022-12-08T16:09:20.903Z,101183.47
2022-12-08T16:12:09.605Z,101113.13
2022-12-08T16:17:26.383Z,101206.84
2022-12-08T16:19:53.601Z,101160.09
2022-12-08T16:22:54.116Z,101176.13
2022-12-08T16:25:20.412Z,101156.63
2022-12-08T16:28:36.876Z,101194.75
2022-12-08T16:30:41.838Z,101116.75
2022-12-08T16:33:10.733Z,101189.53
2022-12-08T16:35:38.217Z,101160.03
2022-12-08T16:38:05.833Z,101196.72
2022-12-08T16:40:33.256Z,101197.09
2022-12-08T16:43:00.900Z,101063.66
2022-12-08T16:45:30.337Z,101064.34
2022-12-08T16:48:02.009Z,101181.16
2022-12-08T16:50:34.842Z,101174.09
2022-12-08T16:53:08.455Z,101186.00
2022-12-08T16:55:36.288Z,101170.81
2022-12-08T16:58:03.789Z,101162.94
2022-12-08T17:00:37.071Z,101162.13
2022-12-08T17:03:08.861Z,101060.22
2022-12-08T17:05:39.292Z,101020.53
2022-12-08T17:08:06.923Z,101144.56
2022-12-08T17:10:39.541Z,101066.00
2022-12-08T17:13:07.722Z,101107.78
2022-12-08T17:15:35.602Z,101142.50
2022-12-08T17:18:03.490Z,101149.47
2022-12-08T17:20:30.762Z,101099.19
2022-12-08T17:22:58.817Z,101157.19
2022-12-08T17:25:27.128Z,101167.06
2022-12-08T17:27:54.713Z,101130.78
2022-12-08T17:30:22.197Z,101176.66
2022-12-08T17:32:49.976Z,101146.69
2022-12-08T17:35:17.277Z,101148.53
2022-12-08T17:37:44.658Z,101145.38
2022-12-08T17:40:12.010Z,101160.47
2022-12-08T17:42:39.317Z,101156.69
2022-12-08T17:45:08.265Z,101156.59
2022-12-08T17:47:35.742Z,101114.53
2022-12-08T17:50:04.537Z,101113.94
2022-12-08T17:52:31.915Z,101170.00
2022-12-08T17:54:59.423Z,101172.69
2022-12-08T17:57:26.773Z,101173.28
2022-12-08T17:59:54.084Z,101168.59
2022-12-08T18:02:21.539Z,101192.91
2022-12-08T18:04:48.876Z,101199.34
2022-12-08T18:07:16.704Z,101135.66
2022-12-08T18:09:43.878Z,101127.53
2022-12-08T18:12:11.552Z,101180.25
2022-12-08T18:14:38.749Z,101161.47
2022-12-08T18:17:06.189Z,101155.56
2022-12-08T18:19:33.438Z,101158.16
2022-12-08T18:22:01.985Z,101164.91
2022-12-08T18:24:32.770Z,101155.88
2022-12-08T18:26:59.956Z,101192.47
2022-12-08T18:29:27.760Z,101172.47
2022-12-08T18:31:55.138Z,101150.94
2022-12-08T18:34:22.768Z,101216.69
2022-12-08T18:36:50.046Z,101183.72
2022-12-08T18:39:29.781Z,101176.47
2022-12-08T18:41:58.749Z,101173.19
2022-12-08T18:44:26.086Z,101141.31
2022-12-08T18:46:53.277Z,101191.22
2022-12-08T18:49:21.008Z,101195.53
2022-12-08T18:51:48.373Z,101173.38
2022-12-08T18:54:15.773Z,101206.25
2022-12-08T18:56:43.141Z,101207.59
2022-12-08T18:59:12.557Z,101200.41
2022-12-08T19:01:40.664Z,101199.88
2022-12-08T19:06:57.802Z,101166.47
2022-12-08T19:09:27.079Z,101073.56
2022-12-08T19:11:55.234Z,101147.50
2022-12-08T19:14:28.100Z,101197.41
2022-12-08T19:16:57.759Z,101216.09
2022-12-08T19:19:26.120Z,101191.75
2022-12-08T19:21:53.875Z,101215.19
2022-12-08T19:24:21.933Z,101209.63
2022-12-08T19:26:49.184Z,101210.50
2022-12-08T19:29:17.175Z,101176.34
2022-12-08T19:31:44.610Z,101169.47
2022-12-08T19:34:15.710Z,101163.63
2022-12-08T19:36:44.210Z,101094.16
2022-12-08T19:39:35.377Z,101173.91
2022-12-08T19:42:22.272Z,101199.69
2022-12-08T19:44:52.756Z,101191.66
2022-12-08T19:47:26.405Z,101190.84
2022-12-08T19:50:16.765Z,101177.25
2022-12-08T19:52:44.703Z,101202.47
2022-12-08T19:55:12.822Z,101197.16
2022-12-08T19:57:40.592Z,101181.84
2022-12-08T20:00:09.656Z,101207.47
2022-12-08T20:02:37.813Z,101208.16
2022-12-08T20:05:06.531Z,101204.34
2022-12-08T20:07:37.236Z,101204.94
2022-12-08T20:10:08.719Z,101161.94
2022-12-08T20:12:36.167Z,101198.53
2022-12-08T20:15:03.991Z,101203.19
2022-12-08T20:17:31.168Z,101168.09
2022-12-08T20:20:03.877Z,101205.09
2022-12-08T20:22:34.516Z,101210.00
2022-12-08T20:25:02.875Z,101185.28
2022-12-08T20:27:31.099Z,101215.34
2022-12-08T20:29:58.624Z,101170.47
2022-12-08T20:32:26.161Z,101212.31
2022-12-08T20:34:54.122Z,101205.22
2022-12-08T20:37:21.498Z,101189.78
2022-12-08T20:39:48.981Z,101115.94
2022-12-08T20:42:21.172Z,101190.13
2022-12-08T20:44:48.687Z,101221.56
2022-12-08T20:47:16.724Z,101224.41
2022-12-08T20:49:43.971Z,101211.00
2022-12-08T20:52:11.567Z,101125.31
2022-12-08T20:54:39.181Z,101202.34
2022-12-08T20:57:09.875Z,101231.50
2022-12-08T20:59:39.484Z,101204.84
2022-12-08T21:02:07.682Z,101184.59
2022-12-08T21:04:36.018Z,101229.13
2022-12-08T21:07:03.390Z,101228.03
2022-12-08T21:09:31.473Z,101234.06
2022-12-08T21:11:59.809Z,101249.81
2022-12-08T21:14:29.437Z,101085.56
2022-12-08T21:16:59.945Z,101191.28
2022-12-08T21:19:28.020Z,101220.00
2022-12-08T21:21:55.463Z,101191.88
2022-12-08T21:24:22.921Z,101125.13
2022-12-08T21:26:50.499Z,101215.03
2022-12-08T21:29:17.987Z,101110.09
2022-12-08T21:31:45.593Z,101229.44
2022-12-08T21:34:13.132Z,101104.13
2022-12-08T21:36:40.619Z,101230.75
2022-12-08T21:39:12.853Z,101230.41
2022-12-08T21:41:58.726Z,101228.84
2022-12-08T21:44:26.448Z,101200.00
2022-12-08T21:46:53.976Z,101190.06
2022-12-08T21:49:21.481Z,101108.06
2022-12-08T21:51:48.789Z,101175.28
2022-12-08T21:54:19.072Z,101160.28
2022-12-08T21:56:49.175Z,101246.25
2022-12-08T21:59:17.707Z,101204.09
2022-12-08T22:01:45.498Z,101241.56
2022-12-08T22:04:18.212Z,101229.78
2022-12-08T22:06:45.996Z,101236.78
2022-12-08T22:09:15.282Z,101224.75
2022-12-08T22:11:43.950Z,101227.94
2022-12-08T22:14:14.830Z,101252.31
2022-12-08T22:16:43.203Z,101251.34
2022-12-08T22:19:11.056Z,101189.59
2022-12-08T22:21:38.443Z,101242.97
2022-12-08T22:24:06.354Z,101232.03
2022-12-08T22:26:33.958Z,101267.53
2022-12-08T22:29:01.350Z,101260.06
2022-12-08T22:31:28.505Z,101251.97
2022-12-08T22:33:55.856Z,101246.19
2022-12-08T22:36:25.456Z,101253.06
2022-12-08T22:38:53.452Z,101233.94
2022-12-08T22:41:21.592Z,101240.50
2022-12-08T22:43:49.907Z,101218.94
2022-12-08T22:46:20.607Z,101211.25
2022-12-08T22:48:48.525Z,101248.03
2022-12-08T22:51:15.833Z,101150.06
2022-12-08T22:53:43.358Z,101235.56
2022-12-08T22:56:12.708Z,101228.03
2022-12-08T22:58:41.352Z,101137.13
2022-12-08T23:01:19.478Z,101280.28
2022-12-08T23:03:46.945Z,101228.63
2022-12-08T23:06:14.257Z,101226.94
2022-12-08T23:08:41.791Z,101227.84
2022-12-08T23:11:09.100Z,101172.41
2022-12-08T23:13:38.285Z,101237.13
2022-12-08T23:16:08.568Z,101236.16
2022-12-08T23:18:36.662Z,101231.28
2022-12-08T23:21:06.421Z,101234.91
2022-12-08T23:23:34.642Z,101222.97
2022-12-08T23:26:01.873Z,101214.78
2022-12-08T23:28:29.322Z,101216.06
2022-12-08T23:30:56.797Z,101209.38
2022-12-08T23:33:24.074Z,101209.91
2022-12-08T23:35:58.284Z,101228.16
2022-12-08T23:38:26.401Z,101225.78
2022-12-08T23:40:53.807Z,101227.75
2022-12-08T23:43:21.145Z,101152.31
2022-12-08T23:45:48.595Z,101187.59
2022-12-08T23:48:16.121Z,101234.59
2022-12-08T23:50:43.869Z,101208.59
2022-12-08T23:53:11.167Z,101240.06
2022-12-08T23:55:38.434Z,101242.53
2022-12-08T23:58:05.666Z,101235.38
